Time;durP1;ratioP1;P1;durP2;ratioP2;P2;SDS_P1;SDS_P2;PMS_P1;PMS_P2;Temp;Humidity;BMP_temperature;BMP_pressure;BME280_temperature;BME280_humidity;BME280_pressure;Samples;Min_cycle;Max_cycle;Signal;HPM_P1;HPM_P2
2022/07/22 00:02:26;;;;;;;6.30;3.60;;;;;;;19.81;53.87;96824.31;108824;1264;25252;-82
2022/07/22 00:05:03;;;;;;;5.20;3.80;;;;;;;19.87;53.85;96822.23;108801;1264;22561;-82
2022/07/22 00:07:40;;;;;;;7.30;4.40;;;;;;;19.93;53.86;96819.88;108829;1264;23959;-82
2022/07/22 00:10:16;;;;;;;7.80;4.40;;;;;;;20.20;53.70;96822.77;108811;1264;23318;-82
2022/07/22 00:12:51;;;;;;;6.60;4.50;;;;;;;20.53;53.09;96818.56;108840;1263;23318;-82
2022/07/22 00:15:28;;;;;;;6.40;4.40;;;;;;;20.91;52.33;96821.41;108658;1264;92348;-82
2022/07/22 00:18:01;;;;;;;7.10;3.90;;;;;;;21.12;51.58;96820.12;108652;1264;22670;-82
2022/07/22 00:20:40;;;;;;;7.90;3.70;;;;;;;21.38;51.11;96824.81;108824;1264;23300;-83
2022/07/22 00:23:17;;;;;;;8.80;4.40;;;;;;;21.59;50.54;96822.39;108800;1262;22594;-83
2022/07/22 00:25:57;;;;;;;13.70;5.00;;;;;;;21.60;50.27;96824.05;108593;1264;105195;-82
2022/07/22 00:28:29;;;;;;;7.80;4.20;;;;;;;21.53;50.05;96821.45;108641;1267;22782;-82
2022/07/22 00:31:03;;;;;;;6.70;4.30;;;;;;;21.33;50.28;96816.13;108786;1264;22691;-82
2022/07/22 00:33:37;;;;;;;7.90;4.00;;;;;;;21.28;50.22;96815.30;108784;1264;22527;-82
2022/07/22 00:36:10;;;;;;;6.90;4.10;;;;;;;21.12;50.35;96808.58;108599;1264;98353;-82
2022/07/22 00:38:42;;;;;;;8.70;4.60;;;;;;;21.06;50.52;96807.60;108638;1264;25969;-82
2022/07/22 00:41:19;;;;;;;6.10;3.70;;;;;;;20.97;50.63;96806.97;108784;1264;22634;-82
2022/07/22 00:43:56;;;;;;;4.70;3.60;;;;;;;20.90;50.63;96803.83;108792;1264;22552;-82
2022/07/22 00:46:28;;;;;;;6.50;3.70;;;;;;;20.76;50.79;96803.02;108608;1264;76754;-82
2022/07/22 00:49:02;;;;;;;8.60;4.00;;;;;;;20.58;51.20;96816.11;108828;1264;22646;-82
2022/07/22 00:51:34;;;;;;;8.60;4.30;;;;;;;20.50;51.53;96816.23;108851;1263;24377;-81
2022/07/22 00:54:07;;;;;;;6.90;4.20;;;;;;;20.59;51.47;96819.69;108800;1264;22534;-82
2022/07/22 00:56:41;;;;;;;7.60;4.80;;;;;;;20.65;51.35;96815.54;106692;1264;2679917;-82
2022/07/22 00:59:18;;;;;;;7.80;4.50;;;;;;;20.68;51.20;96812.96;108862;1264;22623;-82
2022/07/22 01:01:50;;;;;;;11.30;4.50;;;;;;;20.78;50.84;96813.10;108779;1264;22546;-82
2022/07/22 01:04:23;;;;;;;7.70;3.80;;;;;;;20.82;50.74;96813.37;108839;1264;23915;-81
2022/07/22 01:06:54;;;;;;;7.60;4.40;;;;;;;20.80;50.54;96812.92;108465;1265;87008;-81
2022/07/22 01:09:34;;;;;;;6.50;4.40;;;;;;;20.81;50.46;96810.85;108829;1264;22589;-82
2022/07/22 01:12:08;;;;;;;6.90;4.00;;;;;;;20.75;50.67;96814.23;108798;1264;22768;-81
2022/07/22 01:14:40;;;;;;;7.30;3.90;;;;;;;20.68;50.63;96812.59;108821;1264;24293;-82
2022/07/22 01:17:15;;;;;;;9.10;4.10;;;;;;;20.63;50.64;96809.27;108654;1264;101679;-82
2022/07/22 01:19:49;;;;;;;6.40;4.10;;;;;;;20.63;50.40;96805.80;108817;1264;22522;-82
2022/07/22 01:22:24;;;;;;;5.80;3.90;;;;;;;20.68;50.45;96806.48;108856;1264;22584;-82
2022/07/22 01:24:56;;;;;;;7.00;4.20;;;;;;;20.71;50.40;96805.05;108821;1264;22537;-82
2022/07/22 01:27:30;;;;;;;8.00;4.00;;;;;;;20.75;50.32;96800.32;108582;1264;82541;-82
2022/07/22 01:30:03;;;;;;;7.70;4.20;;;;;;;20.66;50.12;96800.64;108632;1265;22567;-80
2022/07/22 01:32:36;;;;;;;6.10;3.90;;;;;;;20.63;50.25;96799.02;108835;1264;22563;-82
2022/07/22 01:35:08;;;;;;;9.20;4.40;;;;;;;20.51;50.37;96797.10;108788;1264;22810;-81
2022/07/22 01:37:39;;;;;;;6.70;4.00;;;;;;;20.57;50.24;96798.06;108586;1264;22523;-80
2022/07/22 01:40:16;;;;;;;5.70;3.20;;;;;;;20.67;50.02;96796.43;108789;1264;22675;-81
2022/07/22 01:42:51;;;;;;;6.80;3.40;;;;;;;20.68;50.00;96795.53;108779;1264;22535;-82
2022/07/22 01:45:23;;;;;;;6.20;3.60;;;;;;;20.58;49.93;96794.86;108545;1264;67562;-81
2022/07/22 01:47:54;;;;;;;6.50;4.00;;;;;;;20.43;50.15;96794.09;108839;1264;24034;-81
2022/07/22 01:50:28;;;;;;;9.10;4.00;;;;;;;20.37;50.48;96796.23;108809;1264;22549;-82
2022/07/22 01:52:59;;;;;;;7.80;4.30;;;;;;;20.25;50.54;96793.09;108836;1264;22582;-81
2022/07/22 01:55:30;;;;;;;7.90;4.00;;;;;;;20.38;50.52;96799.91;108678;1264;103945;-81
2022/07/22 01:58:07;;;;;;;7.50;4.20;;;;;;;20.48;50.35;96799.30;108822;1264;22546;-82
2022/07/22 02:00:41;;;;;;;6.90;3.60;;;;;;;20.52;50.31;96794.20;108750;1264;22636;-81
2022/07/22 02:03:13;;;;;;;9.70;4.30;;;;;;;20.55;50.15;96795.06;108811;1264;22650;-81
2022/07/22 02:05:45;;;;;;;6.50;3.90;;;;;;;20.50;50.21;96792.23;108589;1263;83868;-81
2022/07/22 02:08:16;;;;;;;10.80;4.40;;;;;;;20.46;50.11;96789.11;108693;1264;22548;-81
2022/07/22 02:10:48;;;;;;;8.00;4.10;;;;;;;20.41;50.34;96789.71;108725;1264;22513;-81
2022/07/22 02:13:19;;;;;;;8.10;4.10;;;;;;;20.24;50.51;96784.63;108685;1264;22588;-81
2022/07/22 02:15:53;;;;;;;7.30;4.20;;;;;;;20.12;50.86;96787.67;108630;1264;113337;-81
2022/07/22 02:18:25;;;;;;;8.30;4.30;;;;;;;20.05;51.07;96789.29;108687;1264;23130;-82
2022/07/22 02:20:56;;;;;;;7.80;4.80;;;;;;;19.98;51.24;96788.29;108877;1264;24321;-81
2022/07/22 02:23:27;;;;;;;6.20;4.10;;;;;;;19.90;51.65;96788.13;108840;1264;24230;-81
2022/07/22 02:25:59;;;;;;;7.90;4.00;;;;;;;19.83;51.70;96785.47;108524;1264;188970;-82
2022/07/22 02:28:34;;;;;;;6.70;3.50;;;;;;;19.79;51.74;96788.73;108848;1264;22539;-82
2022/07/22 02:31:08;;;;;;;9.50;4.00;;;;;;;19.72;51.70;96793.27;108851;1264;24224;-82
2022/07/22 02:33:39;;;;;;;6.80;4.10;;;;;;;19.59;51.86;96794.34;108846;1263;22901;-82
2022/07/22 02:36:11;;;;;;;6.30;4.10;;;;;;;19.37;52.29;96794.42;107494;1264;1605770;-82
2022/07/22 02:38:43;;;;;;;8.20;4.30;;;;;;;19.21;52.73;96793.54;108830;1264;22578;-81
2022/07/22 02:41:14;;;;;;;7.90;4.30;;;;;;;19.11;52.79;96793.78;108878;1264;22556;-81
2022/07/22 02:43:50;;;;;;;6.70;3.80;;;;;;;19.17;53.01;96796.61;108867;1263;22625;-81
2022/07/22 02:46:37;;;;;;;8.50;3.60;;;;;;;19.22;52.76;96799.70;108533;1264;107389;-81
2022/07/22 02:49:14;;;;;;;5.30;3.40;;;;;;;19.34;52.44;96798.14;108829;1263;22557;-81
2022/07/22 02:51:45;;;;;;;8.50;3.80;;;;;;;19.44;52.29;96794.59;108899;1264;23406;-81
2022/07/22 02:54:17;;;;;;;6.00;3.60;;;;;;;19.48;52.30;96794.70;108858;1264;22572;-81
2022/07/22 02:56:51;;;;;;;6.20;3.70;;;;;;;19.38;52.33;96793.69;108582;1264;68384;-81
2022/07/22 02:59:22;;;;;;;5.30;3.30;;;;;;;19.35;52.70;96798.23;108850;1264;22684;-81
2022/07/22 03:01:58;;;;;;;7.30;3.90;;;;;;;19.36;52.56;96802.34;108814;1264;22563;-81
2022/07/22 03:04:29;;;;;;;7.10;3.80;;;;;;;19.42;52.66;96803.33;108830;1264;22635;-81
2022/07/22 03:07:05;;;;;;;7.90;4.10;;;;;;;19.53;52.49;96801.90;108508;1264;85492;-81
2022/07/22 03:09:40;;;;;;;9.50;4.30;;;;;;;19.65;52.49;96801.61;108531;1265;22535;-83
2022/07/22 03:12:23;;;;;;;7.30;4.50;;;;;;;19.61;52.46;96796.48;108670;1264;22548;-82
2022/07/22 03:14:58;;;;;;;7.20;3.50;;;;;;;19.48;52.47;96798.19;108651;1264;22552;-82
2022/07/22 03:17:34;;;;;;;8.70;4.40;;;;;;;19.41;52.71;96798.23;108524;1264;105778;-81
2022/07/22 03:20:11;;;;;;;5.80;3.40;;;;;;;19.48;52.94;96812.63;108780;1264;22549;-81
2022/07/22 03:22:42;;;;;;;6.00;3.30;;;;;;;19.51;53.20;96814.02;108560;1265;22862;-82
2022/07/22 03:25:15;;;;;;;9.30;3.70;;;;;;;19.54;53.29;96816.67;108601;1264;90827;-82
2022/07/22 03:27:48;;;;;;;6.30;4.00;;;;;;;19.55;53.13;96824.86;108662;1264;22641;-81
2022/07/22 03:30:21;;;;;;;8.80;4.20;;;;;;;19.61;53.16;96830.77;108655;1264;25427;-81
2022/07/22 03:32:58;;;;;;;6.80;3.50;;;;;;;19.63;52.85;96838.98;108755;1264;22562;-81
2022/07/22 03:35:32;;;;;;;8.60;4.30;;;;;;;19.68;52.67;96841.77;108562;1264;115767;-81
2022/07/22 03:38:04;;;;;;;6.20;4.20;;;;;;;19.72;52.84;96838.85;108760;1264;22537;-82
2022/07/22 03:40:35;;;;;;;7.20;4.00;;;;;;;19.70;52.77;96846.85;108591;1264;22521;-81
2022/07/22 03:43:07;;;;;;;7.50;4.00;;;;;;;19.69;52.91;96851.58;108579;1265;22615;-82
2022/07/22 03:45:38;;;;;;;7.80;4.00;;;;;;;19.76;53.03;96856.27;108545;1264;94578;-81
2022/07/22 03:48:10;;;;;;;7.40;3.60;;;;;;;19.77;53.39;96860.39;108656;1265;25352;-81
2022/07/22 03:50:45;;;;;;;6.40;3.90;;;;;;;19.73;53.36;96866.11;108659;1264;22540;-81
2022/07/22 03:53:16;;;;;;;7.60;4.20;;;;;;;19.75;53.54;96863.71;108496;1267;22665;-81
2022/07/22 03:55:49;;;;;;;8.50;4.80;;;;;;;19.81;53.63;96858.61;108297;1264;224823;-82
2022/07/22 03:58:20;;;;;;;8.90;4.10;;;;;;;19.92;53.79;96858.92;108766;1264;23268;-81
2022/07/22 04:00:53;;;;;;;6.30;4.10;;;;;;;20.05;53.95;96857.05;108807;1264;22558;-81
2022/07/22 04:03:25;;;;;;;12.70;5.10;;;;;;;20.00;54.13;96855.81;108805;1265;22930;-81
2022/07/22 04:05:56;;;;;;;7.80;4.10;;;;;;;20.01;54.55;96862.92;108550;1265;148380;-81
2022/07/22 04:08:27;;;;;;;6.70;4.20;;;;;;;20.08;54.39;96862.52;108781;1265;22812;-77
2022/07/22 04:10:58;;;;;;;6.50;4.00;;;;;;;20.19;54.73;96860.60;108597;1265;22552;-77
2022/07/22 04:13:29;;;;;;;6.40;4.00;;;;;;;20.33;55.01;96865.91;108548;1265;22660;-79
2022/07/22 04:16:00;;;;;;;10.30;4.80;;;;;;;20.38;55.16;96868.67;108510;1265;55214;-79
2022/07/22 04:18:32;;;;;;;4.70;4.10;;;;;;;20.41;55.14;96866.26;108578;1264;22521;-78
2022/07/22 04:21:04;;;;;;;7.40;4.80;;;;;;;20.51;54.66;96867.90;108594;1265;22532;-78
2022/07/22 04:23:35;;;;;;;8.20;4.90;;;;;;;20.62;54.13;96865.09;108603;1265;22614;-78
2022/07/22 04:26:06;;;;;;;8.50;5.20;;;;;;;20.66;53.87;96863.38;108531;1265;78509;-77
2022/07/22 04:28:38;;;;;;;7.50;5.30;;;;;;;20.72;53.76;96861.13;108635;1263;22549;-77
2022/07/22 04:31:09;;;;;;;7.50;4.40;;;;;;;20.78;53.66;96867.52;108630;1265;22663;-77
2022/07/22 04:33:40;;;;;;;7.30;4.50;;;;;;;20.89;53.61;96869.77;108633;1265;22548;-77
2022/07/22 04:36:12;;;;;;;6.40;4.50;;;;;;;20.98;53.70;96868.53;108423;1265;69668;-77
2022/07/22 04:38:43;;;;;;;7.20;4.80;;;;;;;21.07;53.40;96871.50;108595;1265;22549;-77
2022/07/22 04:41:14;;;;;;;9.00;5.40;;;;;;;21.16;53.41;96868.77;108601;1265;22809;-77
2022/07/22 04:43:45;;;;;;;8.80;5.80;;;;;;;21.28;53.35;96864.98;108612;1265;24256;-77
2022/07/22 04:46:16;;;;;;;11.70;4.90;;;;;;;21.41;53.22;96868.28;108543;1264;28870;-78
2022/07/22 04:48:48;;;;;;;10.10;5.50;;;;;;;21.52;53.00;96864.98;108598;1265;22558;-77
2022/07/22 04:51:19;;;;;;;9.80;5.40;;;;;;;21.65;52.88;96869.42;108626;1265;22608;-77
2022/07/22 04:53:50;;;;;;;6.50;5.00;;;;;;;21.73;52.86;96871.05;108628;1264;23211;-77
2022/07/22 04:56:22;;;;;;;9.60;5.00;;;;;;;21.89;52.69;96874.09;108519;1265;36202;-77
2022/07/22 04:58:53;;;;;;;8.70;5.50;;;;;;;22.09;52.48;96877.11;108608;1264;23329;-77
2022/07/22 05:01:28;;;;;;;6.80;5.10;;;;;;;22.29;52.65;96873.48;108655;1265;22546;-78
2022/07/22 05:03:59;;;;;;;10.50;4.80;;;;;;;22.59;52.27;96870.95;108606;1265;22522;-78
2022/07/22 05:06:30;;;;;;;7.40;5.00;;;;;;;22.90;51.50;96873.02;108539;1265;37599;-77
2022/07/22 05:09:01;;;;;;;7.40;4.40;;;;;;;23.47;50.91;96876.28;108607;1264;25394;-77
2022/07/22 05:11:34;;;;;;;6.70;4.70;;;;;;;24.77;49.92;96879.84;108567;1265;22675;-78
2022/07/22 05:14:05;;;;;;;7.90;5.10;;;;;;;26.43;47.95;96882.27;108621;1265;23026;-78
2022/07/22 05:16:38;;;;;;;7.70;4.90;;;;;;;28.08;45.20;96879.42;108487;1265;32645;-78
2022/07/22 05:19:10;;;;;;;6.80;4.70;;;;;;;28.92;42.32;96876.42;108624;1265;23069;-78
2022/07/22 05:21:41;;;;;;;8.70;5.10;;;;;;;29.71;41.05;96875.14;108587;1265;24243;-78
2022/07/22 05:24:12;;;;;;;8.10;4.80;;;;;;;30.12;39.23;96878.56;108607;1265;22546;-78
2022/07/22 05:26:44;;;;;;;7.40;5.00;;;;;;;30.50;38.32;96877.85;108490;1265;57118;-79
2022/07/22 05:29:15;;;;;;;8.70;5.60;;;;;;;30.60;37.31;96876.29;108616;1265;22532;-78
2022/07/22 05:31:47;;;;;;;7.00;4.90;;;;;;;30.59;37.80;96879.05;108591;1264;22522;-78
2022/07/22 05:34:19;;;;;;;7.40;4.90;;;;;;;30.77;36.80;96881.27;108552;1265;24210;-78
2022/07/22 05:36:50;;;;;;;7.00;4.90;;;;;;;30.64;36.83;96880.42;108542;1265;28702;-78
2022/07/22 05:39:21;;;;;;;6.70;5.20;;;;;;;30.48;37.02;96878.95;108569;1264;24618;-81
2022/07/22 05:41:53;;;;;;;8.20;5.40;;;;;;;30.42;37.17;96884.08;108630;1264;22571;-79
2022/07/22 05:44:25;;;;;;;9.40;5.10;;;;;;;30.73;37.54;96893.48;108552;1264;24237;-79
2022/07/22 05:46:56;;;;;;;6.40;5.10;;;;;;;31.24;36.74;96894.38;108465;1265;69995;-79
2022/07/22 05:49:27;;;;;;;7.80;4.80;;;;;;;32.04;36.38;96897.70;108558;1264;22546;-79
2022/07/22 05:52:03;;;;;;;6.90;5.20;;;;;;;32.86;35.13;96894.48;108544;1265;22532;-78
2022/07/22 05:54:34;;;;;;;6.40;4.80;;;;;;;33.15;34.84;96892.51;108575;1265;22527;-80
2022/07/22 05:57:09;;;;;;;7.80;5.40;;;;;;;33.11;34.02;96894.00;108542;1262;27342;-80
2022/07/22 05:59:41;;;;;;;8.80;5.70;;;;;;;32.24;34.54;96896.19;108549;1261;22542;-80
2022/07/22 06:02:12;;;;;;;7.60;4.80;;;;;;;31.69;35.16;96894.07;108606;1265;25404;-81
2022/07/22 06:04:45;;;;;;;5.80;5.30;;;;;;;31.73;35.84;96896.60;108570;1265;22648;-79
2022/07/22 06:07:17;;;;;;;9.00;5.80;;;;;;;32.86;35.65;96894.41;108348;1265;69004;-78
2022/07/22 06:09:50;;;;;;;8.20;5.80;;;;;;;33.89;34.56;96893.30;108511;1264;22535;-79
2022/07/22 06:12:21;;;;;;;6.60;5.50;;;;;;;34.50;33.38;96895.47;108543;1264;22568;-78
2022/07/22 06:14:52;;;;;;;8.70;5.40;;;;;;;34.14;32.88;96893.51;108529;1264;25242;-79
2022/07/22 06:17:24;;;;;;;8.00;5.80;;;;;;;33.70;32.84;96889.55;108445;1265;32122;-79
2022/07/22 06:20:32;;;;;;;8.80;5.70;;;;;;;33.69;33.51;96894.10;108537;1265;25223;-82
2022/07/22 06:23:04;;;;;;;7.70;5.40;;;;;;;34.51;32.84;96883.57;108521;1265;24459;-80
2022/07/22 06:25:35;;;;;;;7.90;5.30;;;;;;;34.61;32.25;96885.45;108652;1264;106930;-80
2022/07/22 06:28:07;;;;;;;8.20;5.80;;;;;;;34.31;33.05;96885.59;108908;1265;22626;-80
2022/07/22 06:30:38;;;;;;;8.40;5.80;;;;;;;35.30;32.34;96883.67;108701;1264;23709;-79
2022/07/22 06:33:10;;;;;;;6.20;5.30;;;;;;;35.90;31.64;96888.23;108864;1264;23879;-80
2022/07/22 06:35:42;;;;;;;8.30;5.60;;;;;;;37.18;31.04;96880.58;108693;1265;103933;-78
2022/07/22 06:38:13;;;;;;;7.10;5.20;;;;;;;37.32;29.49;96880.35;108508;1264;23828;-79
2022/07/22 06:40:44;;;;;;;6.50;5.20;;;;;;;37.11;29.61;96877.74;108511;1264;23090;-79
2022/07/22 06:43:16;;;;;;;8.50;5.50;;;;;;;35.83;30.44;96878.19;108490;1264;22658;-79
2022/07/22 06:45:50;;;;;;;9.40;6.40;;;;;;;34.76;30.97;96874.30;108449;1265;122129;-80
2022/07/22 06:48:21;;;;;;;7.80;6.40;;;;;;;33.49;32.42;96875.38;108944;1264;22574;-79
2022/07/22 06:50:54;;;;;;;6.50;5.80;;;;;;;33.07;33.91;96878.92;108999;1263;22650;-79
2022/07/22 06:53:25;;;;;;;9.40;6.20;;;;;;;33.94;33.93;96876.63;108594;1265;22632;-79
2022/07/22 06:55:56;;;;;;;6.70;5.70;;;;;;;34.31;33.58;96869.77;108584;1265;38688;-78
2022/07/22 06:58:27;;;;;;;7.80;6.30;;;;;;;34.34;33.55;96871.59;108643;1264;22532;-79
2022/07/22 07:00:58;;;;;;;8.20;5.50;;;;;;;35.69;33.15;96872.66;108631;1264;22530;-80
2022/07/22 07:03:29;;;;;;;8.40;6.30;;;;;;;37.59;31.55;96869.27;108640;1264;22548;-79
2022/07/22 07:06:02;;;;;;;11.90;6.00;;;;;;;37.84;29.94;96871.08;108411;1264;30112;-78
2022/07/22 07:08:34;;;;;;;9.90;6.10;;;;;;;37.23;29.80;96869.45;108475;1262;24198;-80
2022/07/22 07:11:06;;;;;;;6.60;5.80;;;;;;;37.08;29.92;96874.76;108537;1264;24260;-81
2022/07/22 07:13:37;;;;;;;8.60;6.40;;;;;;;36.96;29.06;96870.18;108883;1264;22553;-81
2022/07/22 07:16:09;;;;;;;9.10;6.10;;;;;;;36.85;30.10;96874.20;107727;1264;1211828;-80
2022/07/22 07:18:40;;;;;;;8.50;5.70;;;;;;;37.76;29.48;96876.27;108480;1264;24205;-80
2022/07/22 07:21:11;;;;;;;7.40;5.30;;;;;;;38.45;28.94;96873.73;108640;1263;25340;-81
2022/07/22 07:23:45;;;;;;;7.80;5.90;;;;;;;39.17;28.02;96870.69;108781;1264;23831;-80
2022/07/22 07:26:16;;;;;;;6.70;5.30;;;;;;;39.59;27.48;96870.40;108392;1264;40603;-80
2022/07/22 07:28:47;;;;;;;7.80;5.80;;;;;;;39.82;26.83;96875.00;108414;1265;25396;-80
2022/07/22 07:31:18;;;;;;;7.60;5.30;;;;;;;39.29;26.77;96878.05;108614;1264;22559;-79
2022/07/22 07:33:51;;;;;;;6.20;5.10;;;;;;;39.17;27.08;96878.32;108345;1265;24263;-80
2022/07/22 07:36:22;;;;;;;6.50;5.50;;;;;;;39.43;26.89;96876.63;108423;1264;30392;-80
2022/07/22 07:38:53;;;;;;;6.30;5.50;;;;;;;39.45;26.40;96878.80;108647;1264;22724;-79
2022/07/22 07:41:25;;;;;;;6.70;5.70;;;;;;;39.06;26.92;96882.83;108639;1264;22553;-79
2022/07/22 07:43:56;;;;;;;6.30;5.70;;;;;;;39.25;26.52;96879.35;108640;1264;24222;-80
2022/07/22 07:46:28;;;;;;;7.90;5.90;;;;;;;39.99;26.19;96881.72;108343;1264;155292;-79
2022/07/22 07:48:59;;;;;;;9.90;5.70;;;;;;;40.54;25.59;96883.10;108610;1264;22555;-79
2022/07/22 07:51:32;;;;;;;8.20;5.30;;;;;;;40.71;25.69;96879.81;108593;1264;22532;-79
2022/07/22 07:54:04;;;;;;;6.50;4.70;;;;;;;41.29;25.15;96878.85;108607;1264;22546;-80
2022/07/22 07:56:35;;;;;;;6.60;5.10;;;;;;;40.93;24.22;96883.08;108377;1264;128854;-80
2022/07/22 07:59:07;;;;;;;8.70;5.00;;;;;;;39.65;25.01;96878.66;108635;1264;22571;-79
2022/07/22 08:01:39;;;;;;;6.30;5.40;;;;;;;38.49;25.86;96876.48;108613;1264;22546;-79
2022/07/22 08:04:10;;;;;;;8.80;5.50;;;;;;;37.65;27.16;96877.92;108643;1264;25353;-79
2022/07/22 08:06:42;;;;;;;7.00;5.90;;;;;;;37.86;27.59;96874.40;108430;1264;66183;-79
2022/07/22 08:09:13;;;;;;;8.50;5.20;;;;;;;39.12;27.32;96876.36;108617;1264;22522;-82
2022/07/22 08:11:45;;;;;;;7.80;5.50;;;;;;;40.95;25.97;96877.92;108810;1264;22648;-82
2022/07/22 08:14:17;;;;;;;7.20;5.20;;;;;;;41.56;24.90;96875.08;108795;1264;25374;-81
2022/07/22 08:16:52;;;;;;;6.80;5.10;;;;;;;41.98;24.44;96866.92;108636;1264;85779;-82
2022/07/22 08:19:26;;;;;;;8.10;5.40;;;;;;;42.51;23.94;96865.70;108917;1264;22684;-80
2022/07/22 08:22:01;;;;;;;7.90;5.50;;;;;;;41.74;23.26;96867.06;108884;1264;22548;-84
2022/07/22 08:24:32;;;;;;;6.10;5.30;;;;;;;41.00;24.58;96867.65;108871;1263;22549;-78
2022/07/22 08:27:03;;;;;;;6.20;5.10;;;;;;;42.02;24.12;96871.39;108477;1264;31576;-78
2022/07/22 08:29:35;;;;;;;8.80;5.20;;;;;;;42.82;23.36;96873.23;108512;1264;22804;-79
2022/07/22 08:32:07;;;;;;;6.90;5.30;;;;;;;42.60;22.91;96874.82;108495;1264;22534;-79
2022/07/22 08:34:39;;;;;;;5.00;4.50;;;;;;;42.81;23.35;96880.08;108572;1264;24280;-80
2022/07/22 08:37:10;;;;;;;5.90;4.90;;;;;;;42.99;22.13;96875.88;108434;1264;33673;-79
2022/07/22 08:39:42;;;;;;;7.30;5.00;;;;;;;40.52;22.91;96875.18;108518;1264;23020;-79
2022/07/22 08:42:13;;;;;;;6.30;4.80;;;;;;;37.95;25.40;96869.58;108408;1265;22563;-81
2022/07/22 08:44:45;;;;;;;5.50;4.80;;;;;;;36.94;27.03;96878.40;108905;1264;25317;-81
2022/07/22 08:47:19;;;;;;;7.40;5.90;;;;;;;35.66;28.70;96884.56;108871;1264;26580;-80
2022/07/22 08:49:51;;;;;;;7.80;5.50;;;;;;;34.06;30.82;96880.38;108865;1264;22978;-80
2022/07/22 08:52:23;;;;;;;9.40;6.50;;;;;;;33.46;32.23;96884.35;108789;1263;22560;-80
2022/07/22 08:54:54;;;;;;;10.10;6.70;;;;;;;34.11;32.05;96885.84;108590;1264;25391;-80
2022/07/22 08:57:26;;;;;;;8.50;6.90;;;;;;;35.72;31.16;96886.13;108724;1264;47168;-77
2022/07/22 08:59:59;;;;;;;9.50;6.90;;;;;;;36.94;30.02;96891.89;108659;1264;25365;-79
2022/07/22 09:02:40;;;;;;;10.40;6.60;;;;;;;38.05;29.06;96892.26;108561;1264;23647;-79
2022/07/22 09:05:14;;;;;;;8.00;6.50;;;;;;;39.02;27.71;96894.61;108761;1264;28403;-79
2022/07/22 09:07:49;;;;;;;7.30;6.30;;;;;;;39.09;27.78;96899.41;108643;1264;25931;-79
2022/07/22 09:10:22;;;;;;;11.40;6.60;;;;;;;39.97;28.05;96897.34;108821;1264;22898;-78
2022/07/22 09:12:59;;;;;;;11.00;6.90;;;;;;;39.93;27.29;96899.98;108621;1264;22561;-80
2022/07/22 09:15:35;;;;;;;8.00;6.60;;;;;;;39.19;28.03;96897.50;106832;1264;2288195;-82
2022/07/22 09:18:12;;;;;;;9.40;7.40;;;;;;;38.29;28.08;96896.58;108690;1264;22572;-80
2022/07/22 09:20:48;;;;;;;7.90;6.80;;;;;;;36.77;28.82;96891.71;108773;1264;24225;-80
2022/07/22 09:23:25;;;;;;;10.90;7.70;;;;;;;35.43;30.61;96887.86;108875;1263;22797;-80
2022/07/22 09:26:04;;;;;;;8.00;7.10;;;;;;;34.88;32.34;96886.46;108693;1264;96384;-80
2022/07/22 09:28:38;;;;;;;11.50;7.80;;;;;;;34.86;31.96;96883.67;108765;1264;23165;-78
2022/07/22 09:31:30;;;;;;;9.50;7.50;;;;;;;34.58;32.44;96881.84;108763;1264;22528;-80
2022/07/22 09:34:09;;;;;;;11.90;8.20;;;;;;;34.38;32.77;96878.02;108726;1261;22470;-80
2022/07/22 09:36:57;;;;;;;10.40;7.70;;;;;;;33.94;33.33;96879.30;108581;1262;97774;-80
2022/07/22 09:39:31;;;;;;;9.70;8.10;;;;;;;34.00;33.80;96877.70;108847;1264;25434;-81
2022/07/22 09:42:09;;;;;;;13.90;8.30;;;;;;;33.99;34.02;96881.64;108817;1264;22876;-78
2022/07/22 09:44:41;;;;;;;10.20;8.20;;;;;;;33.62;34.44;96887.65;108618;1264;22710;-77
2022/07/22 09:47:30;;;;;;;8.50;7.50;;;;;;;33.45;35.30;96886.88;108491;1264;156408;-78
2022/07/22 09:50:01;;;;;;;10.70;8.40;;;;;;;33.60;35.31;96882.58;108621;1264;22559;-80
2022/07/22 09:52:33;;;;;;;10.10;8.80;;;;;;;33.32;34.97;96883.80;108846;1264;22593;-78
2022/07/22 09:55:06;;;;;;;14.30;8.80;;;;;;;32.86;35.69;96885.61;108855;1264;22568;-76
2022/07/22 09:57:38;;;;;;;10.70;8.00;;;;;;;32.86;36.95;96880.77;108700;1264;24229;-78
2022/07/22 10:00:14;;;;;;;12.10;8.60;;;;;;;32.94;36.31;96880.00;108654;1264;22825;-80
2022/07/22 10:02:49;;;;;;;12.30;8.20;;;;;;;32.53;36.74;96885.83;108688;1264;22634;-79
2022/07/22 10:05:26;;;;;;;10.60;9.40;;;;;;;32.21;36.66;96886.67;108600;1264;50577;-76
2022/07/22 10:08:01;;;;;;;20.40;17.50;;;;;;;31.84;37.23;96887.08;108634;1263;22534;-79
2022/07/22 10:10:34;;;;;;;75.00;68.10;;;;;;;31.53;37.64;96886.73;108605;1264;22556;-81
2022/07/22 10:13:09;;;;;;;574.00;511.40;;;;;;;31.31;38.27;96889.08;108740;1264;22688;-81
2022/07/22 10:15:44;;;;;;;237.00;200.00;;;;;;;31.15;38.60;96888.05;107267;1264;1966964;-80
2022/07/22 10:18:22;;;;;;;170.60;153.00;;;;;;;30.94;38.89;96886.75;108857;1264;22814;-77
2022/07/22 10:21:05;;;;;;;298.00;262.30;;;;;;;30.70;39.33;96889.77;108899;1263;22885;-79
2022/07/22 10:24:17;;;;;;;380.00;340.00;;;;;;;30.45;40.11;96884.77;108897;1263;22520;-81
2022/07/22 10:26:55;;;;;;;790.40;614.30;;;;;;;30.26;40.64;96889.34;108648;1264;109073;-80
2022/07/22 10:29:43;;;;;;;303.10;219.00;;;;;;;30.34;40.48;96886.25;108866;1264;25239;-81
2022/07/22 10:32:33;;;;;;;333.90;252.20;;;;;;;30.32;40.68;96888.38;108881;1264;22755;-81
2022/07/22 10:35:26;;;;;;;;;;;;;;;30.29;40.68;96888.09;108910;1264;22554;-81
2022/07/22 10:38:13;;;;;;;249.50;182.80;;;;;;;30.17;41.06;96891.05;108858;1264;25322;-82
2022/07/22 10:40:58;;;;;;;183.30;137.90;;;;;;;30.09;41.20;96887.48;108848;1264;22817;-82
2022/07/22 10:43:51;;;;;;;83.90;70.80;;;;;;;29.93;41.22;96887.71;108840;1264;25396;-81
2022/07/22 10:47:01;;;;;;;78.30;59.70;;;;;;;29.77;41.83;96888.56;108690;1264;88889;-81
2022/07/22 10:49:33;;;;;;;236.60;197.00;;;;;;;29.74;41.87;96890.77;108840;1264;22586;-81
2022/07/22 10:52:22;;;;;;;76.30;63.60;;;;;;;29.84;42.44;96891.58;108827;1263;22562;-82
2022/07/22 10:55:24;;;;;;;81.10;69.20;;;;;;;29.85;41.96;96888.13;108874;1264;22541;-79
2022/07/22 10:57:57;;;;;;;;;;;;;;;29.90;42.14;96885.07;108930;1263;24415;-81
2022/07/22 11:00:30;;;;;;;172.30;154.10;;;;;;;29.89;41.92;96886.25;108451;1262;580144;-78
2022/07/22 11:03:13;;;;;;;54.50;49.00;;;;;;;29.86;42.21;96883.69;108811;1263;22720;-82
2022/07/22 11:05:45;;;;;;;153.20;127.60;;;;;;;30.07;42.57;96885.77;105751;1264;3678491;-85
2022/07/22 11:08:18;;;;;;;36.60;29.80;;;;;;;30.22;41.90;96880.07;108884;1264;22618;-79
2022/07/22 11:10:56;;;;;;;213.20;189.30;;;;;;;30.34;42.01;96876.25;108778;1264;22561;-78
2022/07/22 11:13:53;;;;;;;80.20;66.20;;;;;;;30.59;41.56;96879.27;108759;1264;22529;-81
2022/07/22 11:16:29;;;;;;;38.30;34.10;;;;;;;30.73;41.15;96878.80;108496;1264;103811;-78
2022/07/22 11:19:05;;;;;;;25.60;21.00;;;;;;;30.71;41.56;96874.75;108737;1264;22550;-75
2022/07/22 11:21:37;;;;;;;13.00;11.60;;;;;;;30.90;41.64;96874.58;108699;1264;22590;-76
2022/07/22 11:24:09;;;;;;;43.30;33.80;;;;;;;31.11;41.45;96879.70;108655;1263;22531;-76
2022/07/22 11:26:44;;;;;;;14.60;10.70;;;;;;;31.06;40.64;96875.67;108729;1264;35242;-76
2022/07/22 11:29:20;;;;;;;33.10;24.50;;;;;;;30.99;40.79;96875.83;108677;1264;22835;-79
2022/07/22 11:31:51;;;;;;;33.30;26.90;;;;;;;31.13;40.27;96876.40;108633;1264;22533;-78
2022/07/22 11:34:23;;;;;;;50.30;38.10;;;;;;;31.07;40.06;96876.46;108623;1264;22546;-78
2022/07/22 11:36:56;;;;;;;30.40;21.80;;;;;;;31.03;40.15;96876.89;108571;1264;25436;-76
2022/07/22 11:39:30;;;;;;;15.00;12.40;;;;;;;30.96;40.24;96874.45;108613;1263;22534;-77
2022/07/22 11:42:02;;;;;;;45.30;35.60;;;;;;;30.82;40.50;96873.01;108616;1264;23023;-78
2022/07/22 11:44:35;;;;;;;39.80;33.30;;;;;;;30.93;40.52;96872.05;108383;1265;22709;-81
2022/07/22 11:47:15;;;;;;;16.20;12.90;;;;;;;30.99;40.72;96872.79;108623;1264;46203;-80
2022/07/22 11:49:52;;;;;;;12.20;10.40;;;;;;;30.89;40.52;96865.83;108743;1264;22523;-80
2022/07/22 11:52:27;;;;;;;18.50;16.30;;;;;;;30.93;40.53;96868.13;108750;1264;22539;-81
2022/07/22 11:54:58;;;;;;;15.30;12.90;;;;;;;31.07;39.76;96867.22;108741;1264;22536;-81